sensor_id;sensor_type;location;lat;lon;timestamp;P1;durP1;ratioP1;P2;durP2;ratioP2
77938;SDS011;67136;47.546;21.630;2023-09-07T00:02:32;4.12;;;2.45;;
77938;SDS011;67136;47.546;21.630;2023-09-07T00:05:42;3.50;;;2.23;;
77938;SDS011;67136;47.546;21.630;2023-09-07T00:08:44;4.10;;;2.20;;
77938;SDS011;67136;47.546;21.630;2023-09-07T00:11:47;3.95;;;2.65;;
77938;SDS011;67136;47.546;21.630;2023-09-07T00:14:50;5.53;;;2.30;;
77938;SDS011;67136;47.546;21.630;2023-09-07T00:17:53;4.28;;;2.85;;
77938;SDS011;67136;47.546;21.630;2023-09-07T00:20:56;4.93;;;2.63;;
77938;SDS011;67136;47.546;21.630;2023-09-07T00:23:59;4.35;;;2.80;;
77938;SDS011;67136;47.546;21.630;2023-09-07T00:27:06;6.32;;;2.95;;
77938;SDS011;67136;47.546;21.630;2023-09-07T00:30:10;4.50;;;2.72;;
77938;SDS011;67136;47.546;21.630;2023-09-07T00:33:13;4.03;;;2.60;;
77938;SDS011;67136;47.546;21.630;2023-09-07T00:36:15;4.63;;;2.60;;
77938;SDS011;67136;47.546;21.630;2023-09-07T00:39:18;5.43;;;3.00;;
77938;SDS011;67136;47.546;21.630;2023-09-07T00:42:21;4.75;;;2.72;;
77938;SDS011;67136;47.546;21.630;2023-09-07T00:45:23;5.68;;;2.90;;
77938;SDS011;67136;47.546;21.630;2023-09-07T00:48:26;5.75;;;3.15;;
77938;SDS011;67136;47.546;21.630;2023-09-07T00:51:29;3.93;;;2.50;;
77938;SDS011;67136;47.546;21.630;2023-09-07T00:54:31;6.05;;;2.95;;
77938;SDS011;67136;47.546;21.630;2023-09-07T00:57:36;4.97;;;3.25;;
77938;SDS011;67136;47.546;21.630;2023-09-07T01:00:42;4.30;;;2.62;;
77938;SDS011;67136;47.546;21.630;2023-09-07T01:03:44;5.05;;;2.90;;
77938;SDS011;67136;47.546;21.630;2023-09-07T01:10:33;4.35;;;2.80;;
77938;SDS011;67136;47.546;21.630;2023-09-07T01:13:36;6.43;;;3.03;;
77938;SDS011;67136;47.546;21.630;2023-09-07T01:16:38;4.60;;;2.83;;
77938;SDS011;67136;47.546;21.630;2023-09-07T01:19:43;5.68;;;2.92;;
77938;SDS011;67136;47.546;21.630;2023-09-07T01:22:46;5.53;;;3.20;;
77938;SDS011;67136;47.546;21.630;2023-09-07T01:25:50;5.57;;;2.80;;
77938;SDS011;67136;47.546;21.630;2023-09-07T01:28:54;7.10;;;3.30;;
77938;SDS011;67136;47.546;21.630;2023-09-07T01:31:58;4.85;;;2.65;;
77938;SDS011;67136;47.546;21.630;2023-09-07T01:35:01;8.25;;;3.37;;
77938;SDS011;67136;47.546;21.630;2023-09-07T01:38:09;7.13;;;3.20;;
77938;SDS011;67136;47.546;21.630;2023-09-07T01:41:11;4.78;;;3.05;;
77938;SDS011;67136;47.546;21.630;2023-09-07T01:44:14;6.68;;;2.97;;
77938;SDS011;67136;47.546;21.630;2023-09-07T01:47:17;6.43;;;3.33;;
77938;SDS011;67136;47.546;21.630;2023-09-07T01:50:21;6.15;;;3.37;;
77938;SDS011;67136;47.546;21.630;2023-09-07T01:53:24;8.67;;;2.97;;
77938;SDS011;67136;47.546;21.630;2023-09-07T01:56:26;6.00;;;2.95;;
77938;SDS011;67136;47.546;21.630;2023-09-07T01:59:29;4.82;;;3.15;;
77938;SDS011;67136;47.546;21.630;2023-09-07T02:02:32;6.50;;;3.50;;
77938;SDS011;67136;47.546;21.630;2023-09-07T02:05:35;4.97;;;3.20;;
77938;SDS011;67136;47.546;21.630;2023-09-07T02:08:38;5.00;;;3.30;;
77938;SDS011;67136;47.546;21.630;2023-09-07T02:11:41;5.43;;;3.58;;
77938;SDS011;67136;47.546;21.630;2023-09-07T02:14:43;7.47;;;3.35;;
77938;SDS011;67136;47.546;21.630;2023-09-07T02:17:47;5.00;;;3.05;;
77938;SDS011;67136;47.546;21.630;2023-09-07T02:21:00;6.37;;;3.75;;
77938;SDS011;67136;47.546;21.630;2023-09-07T02:24:06;6.37;;;3.30;;
77938;SDS011;67136;47.546;21.630;2023-09-07T02:27:10;6.95;;;3.17;;
77938;SDS011;67136;47.546;21.630;2023-09-07T02:30:12;6.00;;;3.05;;
77938;SDS011;67136;47.546;21.630;2023-09-07T02:33:15;5.57;;;3.75;;
77938;SDS011;67136;47.546;21.630;2023-09-07T02:36:18;6.35;;;3.70;;
77938;SDS011;67136;47.546;21.630;2023-09-07T02:39:21;6.73;;;3.67;;
77938;SDS011;67136;47.546;21.630;2023-09-07T02:42:24;6.35;;;3.45;;
77938;SDS011;67136;47.546;21.630;2023-09-07T02:45:26;5.30;;;3.40;;
77938;SDS011;67136;47.546;21.630;2023-09-07T02:48:29;4.97;;;3.22;;
77938;SDS011;67136;47.546;21.630;2023-09-07T02:51:32;9.13;;;3.75;;
77938;SDS011;67136;47.546;21.630;2023-09-07T02:54:35;5.53;;;3.27;;
77938;SDS011;67136;47.546;21.630;2023-09-07T02:57:38;7.40;;;3.37;;
77938;SDS011;67136;47.546;21.630;2023-09-07T03:00:43;8.77;;;3.62;;
77938;SDS011;67136;47.546;21.630;2023-09-07T03:03:47;7.82;;;4.18;;
77938;SDS011;67136;47.546;21.630;2023-09-07T03:06:51;7.00;;;3.47;;
77938;SDS011;67136;47.546;21.630;2023-09-07T03:09:54;7.47;;;3.73;;
77938;SDS011;67136;47.546;21.630;2023-09-07T03:12:56;9.25;;;3.75;;
77938;SDS011;67136;47.546;21.630;2023-09-07T03:16:00;9.75;;;3.92;;
77938;SDS011;67136;47.546;21.630;2023-09-07T03:19:05;6.20;;;3.67;;
77938;SDS011;67136;47.546;21.630;2023-09-07T03:22:08;9.07;;;3.92;;
77938;SDS011;67136;47.546;21.630;2023-09-07T03:25:11;6.17;;;3.30;;
77938;SDS011;67136;47.546;21.630;2023-09-07T03:28:14;6.97;;;3.60;;
77938;SDS011;67136;47.546;21.630;2023-09-07T03:31:17;6.32;;;3.70;;
77938;SDS011;67136;47.546;21.630;2023-09-07T03:34:20;7.37;;;3.78;;
77938;SDS011;67136;47.546;21.630;2023-09-07T03:37:23;6.45;;;3.95;;
77938;SDS011;67136;47.546;21.630;2023-09-07T03:40:26;6.13;;;3.83;;
77938;SDS011;67136;47.546;21.630;2023-09-07T03:43:28;9.13;;;3.80;;
77938;SDS011;67136;47.546;21.630;2023-09-07T03:46:31;7.78;;;3.87;;
77938;SDS011;67136;47.546;21.630;2023-09-07T03:49:34;8.45;;;4.00;;
77938;SDS011;67136;47.546;21.630;2023-09-07T03:52:37;8.90;;;4.10;;
77938;SDS011;67136;47.546;21.630;2023-09-07T03:55:40;8.20;;;4.10;;
77938;SDS011;67136;47.546;21.630;2023-09-07T03:58:44;7.55;;;4.28;;
77938;SDS011;67136;47.546;21.630;2023-09-07T04:01:49;7.32;;;4.18;;
77938;SDS011;67136;47.546;21.630;2023-09-07T04:04:53;9.13;;;4.20;;
77938;SDS011;67136;47.546;21.630;2023-09-07T04:07:57;10.73;;;4.28;;
77938;SDS011;67136;47.546;21.630;2023-09-07T04:11:05;7.43;;;4.10;;
77938;SDS011;67136;47.546;21.630;2023-09-07T04:14:09;8.05;;;4.00;;
77938;SDS011;67136;47.546;21.630;2023-09-07T04:17:12;6.40;;;4.32;;
77938;SDS011;67136;47.546;21.630;2023-09-07T04:20:14;8.10;;;4.53;;
77938;SDS011;67136;47.546;21.630;2023-09-07T04:23:17;12.35;;;5.15;;
77938;SDS011;67136;47.546;21.630;2023-09-07T04:26:20;7.83;;;4.50;;
77938;SDS011;67136;47.546;21.630;2023-09-07T04:29:23;9.23;;;4.70;;
77938;SDS011;67136;47.546;21.630;2023-09-07T04:32:26;7.87;;;4.55;;
77938;SDS011;67136;47.546;21.630;2023-09-07T04:35:29;7.10;;;4.37;;
77938;SDS011;67136;47.546;21.630;2023-09-07T04:38:32;9.00;;;4.80;;
77938;SDS011;67136;47.546;21.630;2023-09-07T04:41:35;8.80;;;4.83;;
77938;SDS011;67136;47.546;21.630;2023-09-07T04:44:37;9.15;;;4.32;;
77938;SDS011;67136;47.546;21.630;2023-09-07T04:47:40;8.32;;;4.68;;
77938;SDS011;67136;47.546;21.630;2023-09-07T04:50:43;8.02;;;4.72;;
77938;SDS011;67136;47.546;21.630;2023-09-07T04:53:46;9.35;;;5.60;;
77938;SDS011;67136;47.546;21.630;2023-09-07T04:56:48;7.83;;;4.80;;
77938;SDS011;67136;47.546;21.630;2023-09-07T04:59:51;10.05;;;4.50;;
77938;SDS011;67136;47.546;21.630;2023-09-07T05:02:54;7.93;;;4.82;;
77938;SDS011;67136;47.546;21.630;2023-09-07T05:05:57;8.82;;;4.40;;
77938;SDS011;67136;47.546;21.630;2023-09-07T05:09:00;7.90;;;4.50;;
77938;SDS011;67136;47.546;21.630;2023-09-07T05:12:02;7.67;;;4.50;;
77938;SDS011;67136;47.546;21.630;2023-09-07T05:15:05;7.37;;;4.32;;
77938;SDS011;67136;47.546;21.630;2023-09-07T05:18:10;7.80;;;4.40;;
77938;SDS011;67136;47.546;21.630;2023-09-07T05:21:13;7.07;;;4.72;;
77938;SDS011;67136;47.546;21.630;2023-09-07T05:24:17;9.93;;;4.72;;
77938;SDS011;67136;47.546;21.630;2023-09-07T05:27:20;11.73;;;5.10;;
77938;SDS011;67136;47.546;21.630;2023-09-07T05:30:23;7.57;;;4.40;;
77938;SDS011;67136;47.546;21.630;2023-09-07T05:33:25;12.52;;;4.35;;
77938;SDS011;67136;47.546;21.630;2023-09-07T05:36:29;8.77;;;4.68;;
77938;SDS011;67136;47.546;21.630;2023-09-07T05:39:31;6.93;;;3.83;;
77938;SDS011;67136;47.546;21.630;2023-09-07T05:42:34;6.83;;;4.43;;
77938;SDS011;67136;47.546;21.630;2023-09-07T05:45:38;7.68;;;4.60;;
77938;SDS011;67136;47.546;21.630;2023-09-07T05:48:42;13.90;;;5.15;;
77938;SDS011;67136;47.546;21.630;2023-09-07T05:51:45;6.72;;;4.20;;
77938;SDS011;67136;47.546;21.630;2023-09-07T05:54:48;7.12;;;4.30;;
77938;SDS011;67136;47.546;21.630;2023-09-07T05:57:51;7.63;;;4.60;;
77938;SDS011;67136;47.546;21.630;2023-09-07T06:00:59;8.90;;;4.20;;
77938;SDS011;67136;47.546;21.630;2023-09-07T06:04:02;7.78;;;4.43;;
77938;SDS011;67136;47.546;21.630;2023-09-07T06:07:05;7.28;;;4.47;;
77938;SDS011;67136;47.546;21.630;2023-09-07T06:10:08;8.38;;;3.95;;
77938;SDS011;67136;47.546;21.630;2023-09-07T06:13:10;6.40;;;4.37;;
77938;SDS011;67136;47.546;21.630;2023-09-07T06:16:13;6.78;;;4.18;;
77938;SDS011;67136;47.546;21.630;2023-09-07T06:19:16;11.63;;;4.32;;
77938;SDS011;67136;47.546;21.630;2023-09-07T06:22:20;6.90;;;3.83;;
77938;SDS011;67136;47.546;21.630;2023-09-07T06:25:23;6.00;;;4.05;;
77938;SDS011;67136;47.546;21.630;2023-09-07T06:28:29;8.80;;;4.50;;
77938;SDS011;67136;47.546;21.630;2023-09-07T06:31:33;6.85;;;3.90;;
77938;SDS011;67136;47.546;21.630;2023-09-07T06:34:36;11.55;;;4.05;;
77938;SDS011;67136;47.546;21.630;2023-09-07T06:37:39;9.57;;;3.85;;
77938;SDS011;67136;47.546;21.630;2023-09-07T06:40:48;6.43;;;3.55;;
77938;SDS011;67136;47.546;21.630;2023-09-07T06:43:52;8.63;;;3.80;;
77938;SDS011;67136;47.546;21.630;2023-09-07T06:46:55;7.90;;;3.97;;
77938;SDS011;67136;47.546;21.630;2023-09-07T06:49:58;9.02;;;4.20;;
77938;SDS011;67136;47.546;21.630;2023-09-07T06:53:02;6.65;;;3.65;;
77938;SDS011;67136;47.546;21.630;2023-09-07T06:56:05;6.95;;;4.00;;
77938;SDS011;67136;47.546;21.630;2023-09-07T06:59:09;5.17;;;3.33;;
77938;SDS011;67136;47.546;21.630;2023-09-07T07:02:11;5.32;;;3.78;;
77938;SDS011;67136;47.546;21.630;2023-09-07T07:05:14;8.60;;;4.25;;
77938;SDS011;67136;47.546;21.630;2023-09-07T07:08:17;9.40;;;3.80;;
77938;SDS011;67136;47.546;21.630;2023-09-07T07:11:20;8.82;;;3.53;;
77938;SDS011;67136;47.546;21.630;2023-09-07T07:14:23;8.43;;;3.80;;
77938;SDS011;67136;47.546;21.630;2023-09-07T07:17:26;8.32;;;4.05;;
77938;SDS011;67136;47.546;21.630;2023-09-07T07:20:29;6.32;;;3.70;;
77938;SDS011;67136;47.546;21.630;2023-09-07T07:23:32;7.95;;;3.28;;
77938;SDS011;67136;47.546;21.630;2023-09-07T07:26:35;6.90;;;3.55;;
77938;SDS011;67136;47.546;21.630;2023-09-07T07:29:38;8.33;;;3.40;;
77938;SDS011;67136;47.546;21.630;2023-09-07T07:32:41;7.20;;;3.45;;
77938;SDS011;67136;47.546;21.630;2023-09-07T07:35:45;9.48;;;3.60;;
77938;SDS011;67136;47.546;21.630;2023-09-07T07:42:12;9.10;;;3.47;;
77938;SDS011;67136;47.546;21.630;2023-09-07T07:45:15;6.50;;;3.47;;
77938;SDS011;67136;47.546;21.630;2023-09-07T07:48:22;6.25;;;3.45;;
77938;SDS011;67136;47.546;21.630;2023-09-07T07:51:25;6.97;;;3.08;;
77938;SDS011;67136;47.546;21.630;2023-09-07T07:54:29;4.93;;;3.40;;
77938;SDS011;67136;47.546;21.630;2023-09-07T07:57:34;6.90;;;3.30;;
77938;SDS011;67136;47.546;21.630;2023-09-07T08:00:38;8.73;;;3.30;;
77938;SDS011;67136;47.546;21.630;2023-09-07T08:03:43;6.85;;;3.35;;
77938;SDS011;67136;47.546;21.630;2023-09-07T08:06:46;9.15;;;3.58;;
77938;SDS011;67136;47.546;21.630;2023-09-07T08:09:49;6.20;;;2.90;;
77938;SDS011;67136;47.546;21.630;2023-09-07T08:12:56;7.62;;;3.25;;
77938;SDS011;67136;47.546;21.630;2023-09-07T08:16:00;7.27;;;3.40;;
77938;SDS011;67136;47.546;21.630;2023-09-07T08:19:04;4.05;;;2.83;;
77938;SDS011;67136;47.546;21.630;2023-09-07T08:22:07;7.15;;;3.33;;
77938;SDS011;67136;47.546;21.630;2023-09-07T08:25:11;8.52;;;3.55;;
77938;SDS011;67136;47.546;21.630;2023-09-07T08:28:18;6.03;;;2.95;;
77938;SDS011;67136;47.546;21.630;2023-09-07T08:31:23;3.87;;;2.70;;
77938;SDS011;67136;47.546;21.630;2023-09-07T08:34:30;5.53;;;2.92;;
77938;SDS011;67136;47.546;21.630;2023-09-07T08:38:15;7.07;;;3.25;;
77938;SDS011;67136;47.546;21.630;2023-09-07T08:41:19;4.57;;;2.90;;
77938;SDS011;67136;47.546;21.630;2023-09-07T08:44:22;5.85;;;2.80;;
77938;SDS011;67136;47.546;21.630;2023-09-07T08:47:27;5.30;;;2.83;;
77938;SDS011;67136;47.546;21.630;2023-09-07T08:50:31;7.12;;;2.80;;
77938;SDS011;67136;47.546;21.630;2023-09-07T08:53:34;8.98;;;6.03;;
77938;SDS011;67136;47.546;21.630;2023-09-07T08:56:38;7.45;;;2.95;;
77938;SDS011;67136;47.546;21.630;2023-09-07T08:59:41;6.15;;;3.10;;
77938;SDS011;67136;47.546;21.630;2023-09-07T09:02:46;3.70;;;2.73;;
77938;SDS011;67136;47.546;21.630;2023-09-07T09:05:57;4.65;;;2.62;;
77938;SDS011;67136;47.546;21.630;2023-09-07T09:09:01;5.18;;;2.87;;
77938;SDS011;67136;47.546;21.630;2023-09-07T09:12:10;9.10;;;3.42;;
77938;SDS011;67136;47.546;21.630;2023-09-07T09:15:16;4.62;;;3.12;;
77938;SDS011;67136;47.546;21.630;2023-09-07T09:18:18;4.50;;;3.00;;
77938;SDS011;67136;47.546;21.630;2023-09-07T09:21:21;4.00;;;2.80;;
77938;SDS011;67136;47.546;21.630;2023-09-07T09:24:25;7.35;;;2.95;;
77938;SDS011;67136;47.546;21.630;2023-09-07T09:27:28;4.18;;;2.97;;
77938;SDS011;67136;47.546;21.630;2023-09-07T09:30:30;3.80;;;2.85;;
77938;SDS011;67136;47.546;21.630;2023-09-07T09:33:33;5.07;;;2.70;;
77938;SDS011;67136;47.546;21.630;2023-09-07T09:36:36;5.68;;;2.97;;
77938;SDS011;67136;47.546;21.630;2023-09-07T09:39:40;4.53;;;2.85;;
77938;SDS011;67136;47.546;21.630;2023-09-07T09:42:44;5.00;;;2.97;;
77938;SDS011;67136;47.546;21.630;2023-09-07T09:45:48;4.68;;;2.85;;
77938;SDS011;67136;47.546;21.630;2023-09-07T09:48:54;5.27;;;2.73;;
77938;SDS011;67136;47.546;21.630;2023-09-07T09:51:57;4.30;;;2.65;;
77938;SDS011;67136;47.546;21.630;2023-09-07T09:55:01;5.97;;;3.10;;
77938;SDS011;67136;47.546;21.630;2023-09-07T09:58:07;3.72;;;2.50;;
77938;SDS011;67136;47.546;21.630;2023-09-07T10:01:13;5.10;;;2.72;;
77938;SDS011;67136;47.546;21.630;2023-09-07T10:04:18;5.67;;;2.63;;
77938;SDS011;67136;47.546;21.630;2023-09-07T10:07:29;3.50;;;2.78;;
77938;SDS011;67136;47.546;21.630;2023-09-07T10:10:46;6.03;;;2.87;;
77938;SDS011;67136;47.546;21.630;2023-09-07T10:13:56;4.55;;;2.97;;
77938;SDS011;67136;47.546;21.630;2023-09-07T10:17:00;9.70;;;3.22;;
77938;SDS011;67136;47.546;21.630;2023-09-07T10:20:06;3.07;;;2.20;;
77938;SDS011;67136;47.546;21.630;2023-09-07T10:23:10;4.97;;;2.60;;
77938;SDS011;67136;47.546;21.630;2023-09-07T10:26:16;5.32;;;2.75;;
77938;SDS011;67136;47.546;21.630;2023-09-07T10:29:21;4.30;;;2.80;;
77938;SDS011;67136;47.546;21.630;2023-09-07T10:32:25;8.23;;;2.95;;
77938;SDS011;67136;47.546;21.630;2023-09-07T10:35:28;6.50;;;2.87;;
77938;SDS011;67136;47.546;21.630;2023-09-07T10:38:37;4.18;;;2.72;;
77938;SDS011;67136;47.546;21.630;2023-09-07T10:41:42;5.32;;;2.85;;
77938;SDS011;67136;47.546;21.630;2023-09-07T10:44:46;4.30;;;2.62;;
77938;SDS011;67136;47.546;21.630;2023-09-07T10:47:49;3.50;;;2.85;;
77938;SDS011;67136;47.546;21.630;2023-09-07T10:50:52;6.57;;;2.67;;
77938;SDS011;67136;47.546;21.630;2023-09-07T10:53:55;8.32;;;3.25;;
77938;SDS011;67136;47.546;21.630;2023-09-07T10:56:57;4.07;;;2.80;;
77938;SDS011;67136;47.546;21.630;2023-09-07T11:00:11;3.20;;;2.37;;
77938;SDS011;67136;47.546;21.630;2023-09-07T11:03:14;4.00;;;2.87;;
77938;SDS011;67136;47.546;21.630;2023-09-07T11:06:18;6.67;;;2.80;;
77938;SDS011;67136;47.546;21.630;2023-09-07T11:09:29;4.03;;;2.90;;
77938;SDS011;67136;47.546;21.630;2023-09-07T11:12:36;6.85;;;2.62;;
77938;SDS011;67136;47.546;21.630;2023-09-07T11:15:40;6.07;;;2.60;;
77938;SDS011;67136;47.546;21.630;2023-09-07T11:18:45;5.62;;;3.12;;
77938;SDS011;67136;47.546;21.630;2023-09-07T11:21:48;3.83;;;2.50;;
77938;SDS011;67136;47.546;21.630;2023-09-07T11:24:53;5.25;;;2.65;;
77938;SDS011;67136;47.546;21.630;2023-09-07T11:27:56;2.78;;;2.30;;
77938;SDS011;67136;47.546;21.630;2023-09-07T11:31:00;3.75;;;2.70;;
77938;SDS011;67136;47.546;21.630;2023-09-07T11:34:03;3.47;;;2.60;;
77938;SDS011;67136;47.546;21.630;2023-09-07T11:37:12;6.17;;;2.77;;
77938;SDS011;67136;47.546;21.630;2023-09-07T11:40:15;4.20;;;2.65;;
77938;SDS011;67136;47.546;21.630;2023-09-07T11:43:17;8.02;;;2.60;;
77938;SDS011;67136;47.546;21.630;2023-09-07T11:46:21;3.20;;;2.45;;
77938;SDS011;67136;47.546;21.630;2023-09-07T11:49:24;3.75;;;2.45;;
77938;SDS011;67136;47.546;21.630;2023-09-07T11:52:27;5.70;;;2.70;;
77938;SDS011;67136;47.546;21.630;2023-09-07T11:55:33;3.12;;;2.60;;
77938;SDS011;67136;47.546;21.630;2023-09-07T11:58:36;4.20;;;3.12;;
77938;SDS011;67136;47.546;21.630;2023-09-07T12:01:39;4.60;;;2.90;;
77938;SDS011;67136;47.546;21.630;2023-09-07T12:04:42;3.60;;;2.55;;
77938;SDS011;67136;47.546;21.630;2023-09-07T12:07:45;5.20;;;2.70;;
77938;SDS011;67136;47.546;21.630;2023-09-07T12:10:48;4.72;;;3.20;;
77938;SDS011;67136;47.546;21.630;2023-09-07T12:13:50;4.82;;;2.90;;
77938;SDS011;67136;47.546;21.630;2023-09-07T12:16:53;3.65;;;2.75;;
77938;SDS011;67136;47.546;21.630;2023-09-07T12:19:56;4.45;;;2.90;;
77938;SDS011;67136;47.546;21.630;2023-09-07T12:22:59;5.63;;;2.70;;
77938;SDS011;67136;47.546;21.630;2023-09-07T12:26:01;3.97;;;2.40;;
77938;SDS011;67136;47.546;21.630;2023-09-07T12:29:06;4.07;;;2.72;;
77938;SDS011;67136;47.546;21.630;2023-09-07T12:32:10;5.18;;;2.58;;
77938;SDS011;67136;47.546;21.630;2023-09-07T12:35:13;3.78;;;2.60;;
77938;SDS011;67136;47.546;21.630;2023-09-07T12:38:17;3.53;;;2.70;;
77938;SDS011;67136;47.546;21.630;2023-09-07T12:41:22;5.47;;;2.70;;
77938;SDS011;67136;47.546;21.630;2023-09-07T12:44:24;3.95;;;2.65;;
77938;SDS011;67136;47.546;21.630;2023-09-07T12:47:27;3.60;;;2.80;;
77938;SDS011;67136;47.546;21.630;2023-09-07T12:50:30;2.90;;;2.42;;
77938;SDS011;67136;47.546;21.630;2023-09-07T12:53:32;4.77;;;2.57;;
77938;SDS011;67136;47.546;21.630;2023-09-07T12:56:35;3.95;;;2.60;;
77938;SDS011;67136;47.546;21.630;2023-09-07T12:59:38;4.25;;;2.55;;
77938;SDS011;67136;47.546;21.630;2023-09-07T13:02:40;4.20;;;2.80;;
77938;SDS011;67136;47.546;21.630;2023-09-07T13:05:44;4.28;;;3.00;;
77938;SDS011;67136;47.546;21.630;2023-09-07T13:08:46;4.33;;;2.83;;
77938;SDS011;67136;47.546;21.630;2023-09-07T13:11:49;4.10;;;2.90;;
77938;SDS011;67136;47.546;21.630;2023-09-07T13:14:52;4.03;;;2.92;;
77938;SDS011;67136;47.546;21.630;2023-09-07T13:17:54;6.82;;;2.85;;
77938;SDS011;67136;47.546;21.630;2023-09-07T13:20:57;4.30;;;2.70;;
77938;SDS011;67136;47.546;21.630;2023-09-07T13:24:03;3.33;;;2.80;;
77938;SDS011;67136;47.546;21.630;2023-09-07T13:27:06;4.20;;;3.20;;
77938;SDS011;67136;47.546;21.630;2023-09-07T13:30:09;5.18;;;3.17;;
77938;SDS011;67136;47.546;21.630;2023-09-07T13:33:14;5.65;;;2.90;;
77938;SDS011;67136;47.546;21.630;2023-09-07T13:36:18;6.30;;;3.20;;
77938;SDS011;67136;47.546;21.630;2023-09-07T13:39:21;4.30;;;3.10;;
77938;SDS011;67136;47.546;21.630;2023-09-07T13:42:25;4.28;;;3.00;;
77938;SDS011;67136;47.546;21.630;2023-09-07T13:45:28;6.55;;;3.10;;
77938;SDS011;67136;47.546;21.630;2023-09-07T13:48:32;4.55;;;2.90;;
77938;SDS011;67136;47.546;21.630;2023-09-07T13:51:35;5.22;;;2.87;;
77938;SDS011;67136;47.546;21.630;2023-09-07T13:54:41;4.40;;;3.07;;
77938;SDS011;67136;47.546;21.630;2023-09-07T13:57:43;4.28;;;3.20;;
77938;SDS011;67136;47.546;21.630;2023-09-07T14:00:46;6.95;;;3.55;;
77938;SDS011;67136;47.546;21.630;2023-09-07T14:03:49;6.05;;;2.90;;
77938;SDS011;67136;47.546;21.630;2023-09-07T14:06:52;7.40;;;3.28;;
77938;SDS011;67136;47.546;21.630;2023-09-07T14:09:54;6.00;;;3.10;;
77938;SDS011;67136;47.546;21.630;2023-09-07T14:12:57;5.87;;;3.30;;
77938;SDS011;67136;47.546;21.630;2023-09-07T14:16:00;4.68;;;2.58;;
77938;SDS011;67136;47.546;21.630;2023-09-07T14:19:03;6.75;;;3.20;;
77938;SDS011;67136;47.546;21.630;2023-09-07T14:22:05;4.68;;;2.90;;
77938;SDS011;67136;47.546;21.630;2023-09-07T14:25:08;5.27;;;2.80;;
77938;SDS011;67136;47.546;21.630;2023-09-07T14:28:11;5.35;;;3.05;;
77938;SDS011;67136;47.546;21.630;2023-09-07T14:31:13;8.00;;;3.25;;
77938;SDS011;67136;47.546;21.630;2023-09-07T14:34:16;4.28;;;3.08;;
77938;SDS011;67136;47.546;21.630;2023-09-07T14:37:18;5.03;;;3.10;;
77938;SDS011;67136;47.546;21.630;2023-09-07T14:40:21;4.53;;;3.00;;
77938;SDS011;67136;47.546;21.630;2023-09-07T14:43:26;3.85;;;2.92;;
77938;SDS011;67136;47.546;21.630;2023-09-07T14:46:28;7.50;;;3.15;;
77938;SDS011;67136;47.546;21.630;2023-09-07T14:49:31;5.28;;;3.22;;
77938;SDS011;67136;47.546;21.630;2023-09-07T14:52:34;7.25;;;2.90;;
77938;SDS011;67136;47.546;21.630;2023-09-07T14:55:44;9.37;;;3.17;;
77938;SDS011;67136;47.546;21.630;2023-09-07T14:58:47;6.70;;;2.97;;
77938;SDS011;67136;47.546;21.630;2023-09-07T15:01:49;4.50;;;3.17;;
77938;SDS011;67136;47.546;21.630;2023-09-07T15:05:03;4.80;;;3.00;;
77938;SDS011;67136;47.546;21.630;2023-09-07T15:08:06;5.12;;;3.00;;
77938;SDS011;67136;47.546;21.630;2023-09-07T15:11:09;6.67;;;3.10;;
77938;SDS011;67136;47.546;21.630;2023-09-07T15:14:14;4.90;;;3.00;;
77938;SDS011;67136;47.546;21.630;2023-09-07T15:17:17;6.45;;;3.17;;
77938;SDS011;67136;47.546;21.630;2023-09-07T15:20:20;4.55;;;3.08;;
77938;SDS011;67136;47.546;21.630;2023-09-07T15:23:23;9.80;;;3.22;;
77938;SDS011;67136;47.546;21.630;2023-09-07T15:26:25;7.50;;;3.27;;
77938;SDS011;67136;47.546;21.630;2023-09-07T15:29:28;8.82;;;3.25;;
77938;SDS011;67136;47.546;21.630;2023-09-07T15:32:31;4.95;;;3.03;;
77938;SDS011;67136;47.546;21.630;2023-09-07T15:35:34;15.57;;;3.17;;
77938;SDS011;67136;47.546;21.630;2023-09-07T15:38:36;5.47;;;3.35;;
77938;SDS011;67136;47.546;21.630;2023-09-07T15:41:39;6.40;;;3.20;;
77938;SDS011;67136;47.546;21.630;2023-09-07T15:44:45;7.28;;;2.90;;
77938;SDS011;67136;47.546;21.630;2023-09-07T15:47:50;5.70;;;2.90;;
77938;SDS011;67136;47.546;21.630;2023-09-07T15:50:53;5.07;;;2.92;;
77938;SDS011;67136;47.546;21.630;2023-09-07T15:53:56;4.65;;;3.30;;
77938;SDS011;67136;47.546;21.630;2023-09-07T15:56:58;5.20;;;2.63;;
77938;SDS011;67136;47.546;21.630;2023-09-07T16:00:06;4.32;;;2.87;;
77938;SDS011;67136;47.546;21.630;2023-09-07T16:03:13;4.40;;;2.80;;
77938;SDS011;67136;47.546;21.630;2023-09-07T16:06:17;5.22;;;3.05;;
77938;SDS011;67136;47.546;21.630;2023-09-07T16:09:19;6.55;;;3.15;;
77938;SDS011;67136;47.546;21.630;2023-09-07T16:12:22;5.97;;;3.20;;
77938;SDS011;67136;47.546;21.630;2023-09-07T16:15:25;5.25;;;3.00;;
77938;SDS011;67136;47.546;21.630;2023-09-07T16:18:27;9.48;;;3.35;;
77938;SDS011;67136;47.546;21.630;2023-09-07T16:21:31;6.47;;;3.33;;
77938;SDS011;67136;47.546;21.630;2023-09-07T16:24:35;5.03;;;3.00;;
77938;SDS011;67136;47.546;21.630;2023-09-07T16:27:37;4.47;;;3.10;;
77938;SDS011;67136;47.546;21.630;2023-09-07T16:30:43;6.45;;;3.05;;
77938;SDS011;67136;47.546;21.630;2023-09-07T16:33:45;4.82;;;3.42;;
77938;SDS011;67136;47.546;21.630;2023-09-07T16:36:48;5.55;;;2.83;;
77938;SDS011;67136;47.546;21.630;2023-09-07T16:39:50;8.90;;;3.33;;
77938;SDS011;67136;47.546;21.630;2023-09-07T16:42:54;6.53;;;3.10;;
77938;SDS011;67136;47.546;21.630;2023-09-07T16:45:59;4.43;;;3.08;;
77938;SDS011;67136;47.546;21.630;2023-09-07T16:49:03;5.28;;;3.08;;
77938;SDS011;67136;47.546;21.630;2023-09-07T16:52:06;9.63;;;3.03;;
77938;SDS011;67136;47.546;21.630;2023-09-07T16:55:09;6.95;;;3.47;;
77938;SDS011;67136;47.546;21.630;2023-09-07T16:58:11;7.57;;;3.30;;
77938;SDS011;67136;47.546;21.630;2023-09-07T17:01:14;5.90;;;3.33;;
77938;SDS011;67136;47.546;21.630;2023-09-07T17:04:22;8.07;;;3.40;;
77938;SDS011;67136;47.546;21.630;2023-09-07T17:07:26;4.53;;;3.20;;
77938;SDS011;67136;47.546;21.630;2023-09-07T17:10:29;7.25;;;3.12;;
77938;SDS011;67136;47.546;21.630;2023-09-07T17:13:32;5.03;;;3.13;;
77938;SDS011;67136;47.546;21.630;2023-09-07T17:16:37;8.02;;;3.10;;
77938;SDS011;67136;47.546;21.630;2023-09-07T17:19:40;5.87;;;3.62;;
77938;SDS011;67136;47.546;21.630;2023-09-07T17:22:43;5.85;;;3.30;;
77938;SDS011;67136;47.546;21.630;2023-09-07T17:25:48;5.45;;;3.08;;
77938;SDS011;67136;47.546;21.630;2023-09-07T17:28:50;5.57;;;3.10;;
77938;SDS011;67136;47.546;21.630;2023-09-07T17:31:58;6.20;;;3.40;;
77938;SDS011;67136;47.546;21.630;2023-09-07T17:35:03;4.53;;;3.45;;
77938;SDS011;67136;47.546;21.630;2023-09-07T17:38:07;6.10;;;3.15;;
77938;SDS011;67136;47.546;21.630;2023-09-07T17:41:10;6.07;;;3.10;;
77938;SDS011;67136;47.546;21.630;2023-09-07T17:44:13;7.10;;;3.60;;
77938;SDS011;67136;47.546;21.630;2023-09-07T17:47:16;5.43;;;3.33;;
77938;SDS011;67136;47.546;21.630;2023-09-07T17:50:19;8.98;;;3.33;;
77938;SDS011;67136;47.546;21.630;2023-09-07T17:53:23;6.78;;;3.37;;
77938;SDS011;67136;47.546;21.630;2023-09-07T17:56:26;6.80;;;3.37;;
77938;SDS011;67136;47.546;21.630;2023-09-07T17:59:29;5.73;;;3.30;;
77938;SDS011;67136;47.546;21.630;2023-09-07T18:02:32;7.12;;;3.50;;
77938;SDS011;67136;47.546;21.630;2023-09-07T18:05:34;7.12;;;3.35;;
77938;SDS011;67136;47.546;21.630;2023-09-07T18:08:37;7.68;;;3.40;;
77938;SDS011;67136;47.546;21.630;2023-09-07T18:11:40;5.50;;;3.28;;
77938;SDS011;67136;47.546;21.630;2023-09-07T18:14:48;5.37;;;3.13;;
77938;SDS011;67136;47.546;21.630;2023-09-07T18:17:51;6.62;;;3.62;;